This is the latest recevied weather packets stored in our database for station/object KA6AKH-13. If no packets are shown the sender has not sent any weather packets the latest 10 day(s).
| Time | Temp. | Humidity | Pressure | Rain* | Wind** | Luminosity | Snow |
|---|---|---|---|---|---|---|---|
| 1777703178 | 13.33° C | 70% | 1012 hPa | 0 mm | - | - | - |
| 1777701918 | 13.89° C | 67% | 1012.4 hPa | 0 mm | - | - | - |
| 1777701319 | 13.89° C | 69% | 1012.4 hPa | 0 mm | - | - | - |
| 1777700058 | 13.89° C | 74% | 1012.6 hPa | 0 mm | - | - | - |
| 1777697628 | 13.33° C | 79% | 1012.7 hPa | 0 mm | - | - | - |
| 1777696998 | 13.33° C | 81% | 1012.7 hPa | 0 mm | - | - | - |
| 1777696398 | 13.89° C | 81% | 1012.8 hPa | 0 mm | - | - | - |
| 1777695168 | 14.44° C | 78% | 1012.6 hPa | 0 mm | - | - | - |
| 1777693938 | 15° C | 72% | 1012.1 hPa | 0 mm | - | - | - |
| 1777692708 | 15° C | 69% | 1011.8 hPa | 0 mm | - | - | - |
| 1777691478 | 15° C | 67% | 1011.3 hPa | 0 mm | - | - | - |
| 1777690848 | 15° C | 67% | 1011.2 hPa | 0 mm | - | - | - |
| 1777690218 | 15° C | 67% | 1011.1 hPa | 0 mm | - | - | - |
| 1777689618 | 15° C | 66% | 1011.2 hPa | 0 mm | - | - | - |
| 1777689019 | 15° C | 66% | 1011.2 hPa | 0 mm | - | - | - |
| 1777688418 | 15° C | 64% | 1011.2 hPa | 0 mm | - | - | - |
| 1777684788 | 16.67° C | 55% | 1010.6 hPa | 0 mm | - | - | - |
| 1777684188 | 16.67° C | 52% | 1010.4 hPa | 0 mm | - | - | - |
| 1777683588 | 16.67° C | 51% | 1010.3 hPa | 0 mm | - | - | - |
| 1777682328 | 17.22° C | 50% | 1009.9 hPa | 0 mm | - | - | - |
| 1777681728 | 17.22° C | 49% | 1009.7 hPa | 0 mm | - | - | - |
| 1777680528 | 17.78° C | 48% | 1010 hPa | 0 mm | - | - | - |
| 1777679928 | 17.78° C | 47% | 1009.9 hPa | 0 mm | - | - | - |
| 1777679454 | 17.78° C | 47% | 1009.8 hPa | 0 mm | - | - | - |
| 1777679328 | 17.78° C | 47% | 1009.8 hPa | 0 mm | - | - | - |
* Rain latest hour (hover to see other rain measurements)
** Current wind speed in m/s (hover to see current wind gust speed)